Terminal Aerodrome Forecast
Issued by NWS Brownsville, TX

Current Version | Previous Version | Text Only | Print | Product List | Glossary Off
Versions: 1 2 3 4 5 6 7 8 9 10 11 12 13 14 15 16 17

000
FTUS44 KBRO 312300 RRA
TAFMFE
TAF
KMFE 312342Z 0100/0124 14016G22KT P6SM SKC
     FM010300 14011KT P6SM SKC
     FM010900 15008KT P6SM SCT020
     FM011400 15012KT P6SM SCT035
     FM011900 13012KT P6SM SCT050 SCT120=

USA.gov is the U.S. government's official web portal to all federal, state and local government web resources and services.